createdAt,value
2018-10-02T00:01:07.536Z,8.60
2018-10-02T00:03:35.755Z,8.50
2018-10-02T00:06:03.954Z,8.60
2018-10-02T00:08:32.159Z,8.60
2018-10-02T00:11:06.022Z,8.60
2018-10-02T00:13:39.823Z,8.50
2018-10-02T00:16:07.975Z,8.50
2018-10-02T00:18:36.180Z,8.50
2018-10-02T00:21:04.427Z,8.50
2018-10-02T00:23:32.621Z,8.50
2018-10-02T00:26:00.791Z,8.40
2018-10-02T00:28:28.954Z,8.40
2018-10-02T00:30:57.123Z,8.40
2018-10-02T00:33:25.346Z,8.40
2018-10-02T00:35:53.623Z,8.40
2018-10-02T00:38:21.970Z,8.30
2018-10-02T00:40:50.212Z,8.30
2018-10-02T00:43:18.471Z,8.30
2018-10-02T00:45:46.655Z,8.30
2018-10-02T00:48:14.803Z,8.30
2018-10-02T00:50:42.980Z,8.20
2018-10-02T00:53:11.145Z,8.20
2018-10-02T00:55:39.282Z,8.20
2018-10-02T00:58:07.523Z,8.20
2018-10-02T01:00:35.778Z,8.20
2018-10-02T01:03:04.046Z,8.20
2018-10-02T01:05:32.200Z,8.20
2018-10-02T01:08:00.320Z,8.20
2018-10-02T01:10:28.482Z,8.20
2018-10-02T01:12:56.623Z,8.20
2018-10-02T01:15:24.911Z,8.20
2018-10-02T01:17:53.080Z,8.20
2018-10-02T01:20:21.339Z,8.20
2018-10-02T01:22:49.556Z,8.10
2018-10-02T01:25:17.897Z,8.10
2018-10-02T01:27:46.067Z,8.10
2018-10-02T01:30:14.296Z,7.90
2018-10-02T01:32:42.507Z,7.80
2018-10-02T01:35:10.706Z,7.90
2018-10-02T01:37:38.903Z,7.90
2018-10-02T01:40:07.116Z,7.90
2018-10-02T01:42:35.360Z,8.00
2018-10-02T01:45:03.558Z,8.00
2018-10-02T01:47:31.711Z,7.90
2018-10-02T01:49:59.873Z,7.80
2018-10-02T01:52:28.103Z,7.80
2018-10-02T01:54:56.294Z,7.80
2018-10-02T01:57:24.494Z,7.80
2018-10-02T01:59:52.654Z,7.90
2018-10-02T02:02:20.850Z,7.80
2018-10-02T02:04:49.045Z,7.80
2018-10-02T02:07:17.811Z,7.80
2018-10-02T02:09:46.023Z,7.90
2018-10-02T02:12:14.189Z,7.90
2018-10-02T02:14:42.348Z,7.80
2018-10-02T02:17:10.507Z,7.90
2018-10-02T02:19:38.700Z,7.80
2018-10-02T02:22:06.886Z,7.80
2018-10-02T02:24:35.011Z,7.80
2018-10-02T02:27:03.129Z,7.80
2018-10-02T02:29:31.387Z,7.80
2018-10-02T02:31:59.546Z,7.80
2018-10-02T02:34:27.711Z,7.70
2018-10-02T02:36:55.904Z,7.70
2018-10-02T02:39:24.078Z,7.70
2018-10-02T02:41:52.354Z,7.70
2018-10-02T02:44:20.564Z,7.70
2018-10-02T02:46:48.752Z,7.70
2018-10-02T02:49:22.680Z,7.70
2018-10-02T02:51:51.052Z,7.70
2018-10-02T02:54:19.275Z,7.70
2018-10-02T02:56:47.619Z,7.70
2018-10-02T02:59:15.795Z,7.70
2018-10-02T03:01:43.959Z,7.70
2018-10-02T03:04:12.139Z,7.70
2018-10-02T03:06:40.335Z,7.70
2018-10-02T03:09:08.612Z,7.70
2018-10-02T03:11:36.693Z,7.60
2018-10-02T03:14:04.832Z,7.60
2018-10-02T03:16:33.047Z,7.60
2018-10-02T03:19:01.269Z,7.60
2018-10-02T03:21:29.701Z,7.60
2018-10-02T03:23:57.869Z,7.50
2018-10-02T03:26:25.991Z,7.50
2018-10-02T03:28:54.200Z,7.50
2018-10-02T03:31:22.423Z,7.50
2018-10-02T03:33:50.676Z,7.40
2018-10-02T03:36:18.883Z,7.40
2018-10-02T03:38:47.098Z,7.40
2018-10-02T03:41:15.540Z,7.30
2018-10-02T03:43:45.555Z,7.30
2018-10-02T03:46:13.762Z,7.30
2018-10-02T03:48:41.943Z,7.20
2018-10-02T03:51:10.160Z,7.20
2018-10-02T03:53:38.337Z,7.20
2018-10-02T03:56:06.519Z,7.20
2018-10-02T03:58:34.723Z,7.20
2018-10-02T04:01:03.050Z,7.20
2018-10-02T04:03:31.346Z,7.20
2018-10-02T04:05:59.463Z,7.20
2018-10-02T04:08:27.659Z,7.20
2018-10-02T04:10:55.804Z,7.20
2018-10-02T04:13:23.949Z,7.10
2018-10-02T04:15:52.106Z,7.20
2018-10-02T04:18:20.288Z,7.10
2018-10-02T04:20:48.552Z,7.00
2018-10-02T04:23:16.676Z,7.00
2018-10-02T04:25:44.858Z,7.00
2018-10-02T04:28:13.073Z,6.90
2018-10-02T04:30:41.248Z,6.90
2018-10-02T04:33:09.413Z,6.90
2018-10-02T04:35:37.827Z,6.80
2018-10-02T04:38:06.087Z,6.70
2018-10-02T04:40:34.347Z,6.70
2018-10-02T04:43:02.540Z,6.70
2018-10-02T04:45:30.686Z,6.70
2018-10-02T04:47:58.921Z,6.70
2018-10-02T04:50:27.099Z,6.70
2018-10-02T04:52:55.290Z,6.70
2018-10-02T04:55:24.337Z,6.60
2018-10-02T04:57:52.547Z,6.60
2018-10-02T05:00:21.533Z,6.60
2018-10-02T05:02:49.723Z,6.50
2018-10-02T05:05:18.248Z,6.50
2018-10-02T05:07:46.445Z,6.50
2018-10-02T05:10:14.651Z,6.50
2018-10-02T05:12:42.804Z,6.50
2018-10-02T05:15:10.967Z,6.40
2018-10-02T05:17:39.098Z,6.40
2018-10-02T05:20:10.307Z,6.40
2018-10-02T05:22:38.495Z,6.40
2018-10-02T05:25:07.315Z,6.40
2018-10-02T05:27:35.629Z,6.30
2018-10-02T05:30:03.885Z,6.30
2018-10-02T05:32:32.010Z,6.30
2018-10-02T05:35:00.220Z,6.30
2018-10-02T05:37:28.387Z,6.40
2018-10-02T05:39:56.579Z,6.50
2018-10-02T05:42:24.781Z,6.50
2018-10-02T05:44:52.999Z,6.60
2018-10-02T05:47:21.196Z,6.60
2018-10-02T05:49:49.383Z,6.50
2018-10-02T05:52:17.604Z,6.40
2018-10-02T05:54:45.763Z,6.40
2018-10-02T05:57:14.058Z,6.50
2018-10-02T05:59:42.222Z,6.50
2018-10-02T06:02:10.503Z,6.50
2018-10-02T06:04:38.617Z,6.50
2018-10-02T06:07:06.841Z,6.60
2018-10-02T06:09:34.960Z,6.60
2018-10-02T06:12:03.166Z,6.60
2018-10-02T06:14:31.446Z,6.60
2018-10-02T06:16:59.761Z,6.60
2018-10-02T06:19:27.896Z,6.60
2018-10-02T06:21:56.039Z,6.60
2018-10-02T06:24:24.196Z,6.70
2018-10-02T06:26:52.349Z,6.70
2018-10-02T06:29:20.468Z,6.70
2018-10-02T06:31:48.665Z,6.80
2018-10-02T06:34:16.849Z,6.90
2018-10-02T06:36:45.052Z,7.10
2018-10-02T06:39:13.194Z,7.20
2018-10-02T06:41:41.384Z,7.30
2018-10-02T06:44:09.530Z,7.30
2018-10-02T06:46:37.800Z,7.30
2018-10-02T06:49:05.983Z,7.40
2018-10-02T06:51:34.186Z,7.40
2018-10-02T06:54:02.394Z,7.30
2018-10-02T06:56:30.651Z,7.30
2018-10-02T06:58:58.760Z,7.30
2018-10-02T07:01:26.943Z,7.30
2018-10-02T07:03:55.184Z,7.40
2018-10-02T07:06:23.356Z,7.50
2018-10-02T07:08:51.704Z,7.70
2018-10-02T07:11:19.863Z,7.80
2018-10-02T07:13:48.018Z,8.00
2018-10-02T07:16:16.191Z,8.20
2018-10-02T07:18:44.329Z,8.20
2018-10-02T07:21:12.552Z,8.30
2018-10-02T07:23:40.747Z,8.30
2018-10-02T07:26:09.305Z,8.40
2018-10-02T07:28:37.681Z,8.50
2018-10-02T07:31:06.328Z,8.50
2018-10-02T07:33:34.482Z,8.60
2018-10-02T07:36:02.710Z,8.70
2018-10-02T07:38:31.096Z,8.70
2018-10-02T07:40:59.293Z,8.80
2018-10-02T07:43:27.779Z,8.90
2018-10-02T07:45:55.978Z,9.10
2018-10-02T07:48:24.130Z,9.30
2018-10-02T07:50:52.382Z,9.40
2018-10-02T07:53:20.540Z,9.60
2018-10-02T07:55:48.799Z,9.70
2018-10-02T07:58:17.023Z,9.70
2018-10-02T08:00:45.253Z,9.80
2018-10-02T08:03:13.379Z,9.90
2018-10-02T08:05:41.847Z,10.10
2018-10-02T08:08:09.989Z,10.20
2018-10-02T08:10:38.135Z,10.10
2018-10-02T08:13:06.364Z,10.20
2018-10-02T08:15:34.547Z,10.30
2018-10-02T08:18:02.806Z,10.40
2018-10-02T08:20:31.077Z,10.40
2018-10-02T08:22:59.850Z,10.40
2018-10-02T08:25:27.959Z,10.40
2018-10-02T08:27:56.227Z,10.40
2018-10-02T08:30:24.481Z,10.40
2018-10-02T08:32:52.753Z,10.30
2018-10-02T08:35:21.005Z,10.30
2018-10-02T08:37:49.106Z,10.30
2018-10-02T08:40:17.331Z,10.40
2018-10-02T08:42:45.511Z,10.40
2018-10-02T08:45:13.763Z,10.50
2018-10-02T08:47:42.029Z,10.50
2018-10-02T08:50:10.174Z,10.60
2018-10-02T08:52:38.414Z,10.70
2018-10-02T08:55:06.611Z,10.80
2018-10-02T08:57:34.867Z,10.90
2018-10-02T09:00:03.297Z,11.00
2018-10-02T09:02:31.470Z,11.00
2018-10-02T09:04:59.615Z,11.10
2018-10-02T09:07:27.793Z,11.10
2018-10-02T09:09:55.968Z,11.10
2018-10-02T09:12:24.229Z,10.60
2018-10-02T09:14:52.388Z,10.60
2018-10-02T09:17:20.581Z,10.60
2018-10-02T09:19:48.747Z,10.80
2018-10-02T09:22:16.983Z,10.90
2018-10-02T09:24:45.235Z,11.20
2018-10-02T09:27:13.400Z,11.40
2018-10-02T09:29:47.316Z,11.60
2018-10-02T09:32:21.262Z,11.70
2018-10-02T09:34:54.985Z,11.80
2018-10-02T09:37:28.943Z,11.90
2018-10-02T09:40:02.826Z,12.00
2018-10-02T09:42:36.738Z,12.10
2018-10-02T09:45:04.862Z,12.10
2018-10-02T09:47:33.292Z,12.10
2018-10-02T09:50:01.497Z,12.20
2018-10-02T09:52:29.746Z,12.40
2018-10-02T09:54:57.953Z,12.30
2018-10-02T09:57:26.176Z,11.60
2018-10-02T09:59:54.351Z,11.50
2018-10-02T10:02:28.284Z,11.60
2018-10-02T10:04:56.507Z,11.60
2018-10-02T10:07:24.702Z,11.70
2018-10-02T10:09:52.891Z,11.60
2018-10-02T10:12:21.091Z,11.60
2018-10-02T10:14:49.292Z,11.70
2018-10-02T10:17:17.573Z,11.80
2018-10-02T10:19:45.621Z,12.00
2018-10-02T10:22:13.828Z,12.20
2018-10-02T10:24:42.076Z,12.30
2018-10-02T10:27:10.538Z,12.30
2018-10-02T10:29:40.197Z,12.40
2018-10-02T10:32:08.904Z,12.40
2018-10-02T10:34:37.335Z,12.60
2018-10-02T10:37:05.647Z,12.60
2018-10-02T10:39:33.860Z,12.50
2018-10-02T10:42:02.075Z,12.40
2018-10-02T10:44:30.239Z,12.20
2018-10-02T10:46:58.487Z,12.30
2018-10-02T10:49:26.663Z,12.30
2018-10-02T10:51:54.881Z,12.30
2018-10-02T10:54:23.068Z,12.40
2018-10-02T10:56:51.304Z,12.60
2018-10-02T10:59:19.498Z,12.70
2018-10-02T11:01:47.694Z,12.70
2018-10-02T11:04:15.905Z,12.50
2018-10-02T11:06:44.038Z,12.50
2018-10-02T11:09:12.177Z,12.60
2018-10-02T11:11:40.268Z,12.60
2018-10-02T11:14:08.502Z,12.40
2018-10-02T11:16:36.696Z,12.10
2018-10-02T11:19:04.943Z,12.10
2018-10-02T11:21:33.136Z,12.10
2018-10-02T11:24:01.418Z,12.30
2018-10-02T11:26:29.581Z,12.40
2018-10-02T11:28:57.710Z,12.50
2018-10-02T11:31:26.072Z,12.60
2018-10-02T11:33:54.252Z,12.60
2018-10-02T11:36:22.405Z,12.70
2018-10-02T11:38:50.663Z,12.70
2018-10-02T11:41:18.862Z,12.80
2018-10-02T11:43:47.199Z,13.00
2018-10-02T11:46:15.312Z,12.50
2018-10-02T11:48:43.565Z,12.40
2018-10-02T11:51:11.765Z,12.50
2018-10-02T11:53:39.922Z,12.60
2018-10-02T11:56:08.364Z,12.70
2018-10-02T11:58:36.673Z,12.70
2018-10-02T12:01:04.980Z,12.90
2018-10-02T12:03:33.166Z,12.90
2018-10-02T12:06:01.284Z,12.90
2018-10-02T12:08:29.590Z,12.90
2018-10-02T12:10:57.773Z,13.00
2018-10-02T12:13:26.265Z,13.20
2018-10-02T12:15:54.335Z,13.20
2018-10-02T12:18:22.609Z,13.10
2018-10-02T12:20:50.786Z,12.70
2018-10-02T12:23:19.043Z,12.50
2018-10-02T12:25:47.336Z,12.60
2018-10-02T12:28:15.687Z,12.80
2018-10-02T12:30:43.978Z,12.80
2018-10-02T12:33:12.196Z,12.80
2018-10-02T12:35:40.428Z,12.70
2018-10-02T12:38:08.655Z,12.80
2018-10-02T12:40:36.959Z,12.70
2018-10-02T12:43:05.212Z,12.50
2018-10-02T12:45:33.388Z,12.40
2018-10-02T12:48:01.599Z,12.50
2018-10-02T12:50:29.881Z,12.70
2018-10-02T12:52:58.178Z,12.80
2018-10-02T12:55:26.327Z,12.80
2018-10-02T12:57:54.504Z,12.90
2018-10-02T13:00:22.833Z,13.00
2018-10-02T13:02:51.078Z,13.10
2018-10-02T13:05:19.231Z,13.10
2018-10-02T13:07:47.420Z,13.00
2018-10-02T13:10:15.600Z,13.10
2018-10-02T13:12:43.869Z,13.20
2018-10-02T13:15:12.173Z,13.00
2018-10-02T13:17:40.492Z,12.90
2018-10-02T13:20:08.772Z,12.90
2018-10-02T13:22:36.943Z,12.80
2018-10-02T13:25:05.215Z,12.80
2018-10-02T13:27:33.536Z,12.60
2018-10-02T13:30:01.936Z,12.50
2018-10-02T13:32:30.217Z,12.40
2018-10-02T13:34:58.482Z,12.50
2018-10-02T13:37:26.832Z,12.50
2018-10-02T13:39:55.143Z,12.50
2018-10-02T13:42:23.430Z,12.40
2018-10-02T13:44:51.836Z,12.50
2018-10-02T13:47:20.137Z,12.50
2018-10-02T13:49:48.343Z,12.30
2018-10-02T13:52:16.549Z,12.40
2018-10-02T13:54:44.772Z,12.50
2018-10-02T13:57:12.961Z,12.60
2018-10-02T13:59:41.356Z,12.60
2018-10-02T14:02:09.674Z,12.60
2018-10-02T14:04:38.000Z,12.60
2018-10-02T14:07:06.274Z,12.60
2018-10-02T14:09:34.703Z,12.40
2018-10-02T14:12:02.947Z,12.30
2018-10-02T14:14:31.216Z,12.30
2018-10-02T14:16:59.426Z,12.30
2018-10-02T14:19:27.754Z,12.10
2018-10-02T14:21:55.925Z,12.10
2018-10-02T14:24:24.156Z,12.10
2018-10-02T14:26:53.199Z,12.00
2018-10-02T14:29:21.380Z,12.00
2018-10-02T14:31:49.570Z,12.00
2018-10-02T14:34:17.854Z,11.90
2018-10-02T14:36:46.639Z,11.90
2018-10-02T14:39:14.851Z,11.90
2018-10-02T14:41:43.111Z,11.80
2018-10-02T14:44:11.452Z,11.80
2018-10-02T14:46:39.821Z,11.80
2018-10-02T14:49:08.004Z,11.80
2018-10-02T14:51:36.294Z,11.80
2018-10-02T14:54:04.607Z,11.90
2018-10-02T14:56:32.815Z,11.80
2018-10-02T14:59:01.103Z,11.70
2018-10-02T15:01:29.448Z,11.70
2018-10-02T15:03:57.941Z,11.60
2018-10-02T15:06:26.252Z,11.60
2018-10-02T15:08:54.437Z,11.60
2018-10-02T15:11:22.664Z,11.70
2018-10-02T15:13:52.565Z,11.70
2018-10-02T15:16:20.769Z,11.70
2018-10-02T15:18:49.076Z,11.70
2018-10-02T15:21:17.272Z,11.70
2018-10-02T15:23:45.494Z,11.60
2018-10-02T15:26:13.760Z,11.70
2018-10-02T15:28:42.052Z,11.70
2018-10-02T15:31:10.323Z,11.80
2018-10-02T15:33:38.619Z,11.90
2018-10-02T15:36:06.927Z,11.90
2018-10-02T15:38:35.122Z,11.90
2018-10-02T15:41:03.336Z,11.90
2018-10-02T15:43:31.593Z,11.90
2018-10-02T15:45:59.906Z,12.00
2018-10-02T15:48:28.317Z,12.00
2018-10-02T15:50:56.571Z,12.00
2018-10-02T15:53:24.783Z,12.00
2018-10-02T15:55:53.043Z,12.10
2018-10-02T15:58:21.280Z,12.10
2018-10-02T16:00:49.512Z,12.10
2018-10-02T16:03:17.825Z,12.10
2018-10-02T16:05:46.159Z,12.20
2018-10-02T16:08:14.382Z,12.20
2018-10-02T16:10:42.619Z,12.20
2018-10-02T16:13:11.092Z,12.20
2018-10-02T16:15:39.394Z,12.20
2018-10-02T16:18:07.694Z,12.20
2018-10-02T16:20:35.819Z,12.20
2018-10-02T16:23:04.116Z,12.10
2018-10-02T16:25:32.473Z,12.10
2018-10-02T16:28:00.793Z,12.10
2018-10-02T16:30:29.105Z,12.20
2018-10-02T16:32:58.224Z,12.20
2018-10-02T16:35:26.513Z,12.20
2018-10-02T16:37:54.781Z,12.20
2018-10-02T16:40:23.013Z,12.20
2018-10-02T16:42:51.254Z,12.10
2018-10-02T16:45:19.527Z,12.10
2018-10-02T16:47:47.794Z,12.10
2018-10-02T16:50:16.178Z,12.10
2018-10-02T16:52:44.430Z,12.00
2018-10-02T16:55:12.751Z,12.10
2018-10-02T16:57:40.963Z,12.00
2018-10-02T17:00:09.394Z,12.00
2018-10-02T17:02:37.623Z,12.00
2018-10-02T17:05:06.073Z,12.00
2018-10-02T17:07:34.970Z,12.10
2018-10-02T17:10:03.413Z,12.00
2018-10-02T17:12:31.740Z,12.00
2018-10-02T17:14:59.980Z,12.10
2018-10-02T17:17:28.284Z,12.10
2018-10-02T17:19:56.717Z,12.00
2018-10-02T17:22:24.940Z,11.90
2018-10-02T17:24:53.308Z,11.90
2018-10-02T17:27:21.583Z,12.00
2018-10-02T17:29:49.896Z,12.00
2018-10-02T17:32:18.157Z,11.90
2018-10-02T17:34:46.378Z,11.90
2018-10-02T17:37:14.658Z,12.00
2018-10-02T17:39:42.872Z,12.00
2018-10-02T17:42:11.235Z,12.00
2018-10-02T17:44:39.633Z,12.00
2018-10-02T17:47:08.397Z,12.10
2018-10-02T17:49:37.708Z,12.00
2018-10-02T17:52:05.910Z,12.00
2018-10-02T17:54:34.251Z,12.10
2018-10-02T17:57:02.809Z,12.10
2018-10-02T17:59:31.335Z,12.10
2018-10-02T18:01:59.777Z,12.10
2018-10-02T18:04:28.073Z,12.00
2018-10-02T18:06:56.319Z,12.10
2018-10-02T18:09:24.588Z,12.00
2018-10-02T18:11:52.799Z,12.00
2018-10-02T18:14:21.090Z,12.10
2018-10-02T18:16:49.362Z,12.10
2018-10-02T18:19:17.648Z,12.10
2018-10-02T18:21:45.982Z,12.10
2018-10-02T18:24:14.376Z,12.10
2018-10-02T18:26:42.595Z,12.10
2018-10-02T18:29:10.878Z,12.00
2018-10-02T18:31:39.131Z,12.10
2018-10-02T18:34:07.476Z,12.00
2018-10-02T18:36:35.815Z,12.00
2018-10-02T18:44:02.247Z,12.00
2018-10-02T18:46:30.849Z,11.90
2018-10-02T18:52:11.900Z,12.00
2018-10-02T18:54:41.148Z,11.90
2018-10-02T18:57:09.762Z,11.80
2018-10-02T18:59:38.522Z,11.80
2018-10-02T19:02:07.166Z,11.80
2018-10-02T19:04:36.580Z,11.70
2018-10-02T19:07:05.399Z,11.70
2018-10-02T19:09:35.640Z,11.70
2018-10-02T19:12:12.389Z,11.60
2018-10-02T19:14:40.920Z,11.60
2018-10-02T19:17:09.838Z,11.50
2018-10-02T19:19:44.236Z,11.50
2018-10-02T19:22:18.695Z,11.50
2018-10-02T19:24:47.295Z,11.60
2018-10-02T19:30:07.551Z,11.50
2018-10-02T19:32:37.563Z,11.50
2018-10-02T19:35:06.557Z,11.60
2018-10-02T19:37:41.334Z,11.50
2018-10-02T19:42:59.496Z,11.50
2018-10-02T19:45:34.035Z,11.50
2018-10-02T19:48:03.469Z,11.50
2018-10-02T19:50:32.310Z,11.50
2018-10-02T19:53:00.858Z,11.50
2018-10-02T19:55:29.614Z,11.50
2018-10-02T19:57:58.118Z,11.50
2018-10-02T20:00:27.443Z,11.50
2018-10-02T20:02:55.968Z,11.60
2018-10-02T20:05:24.788Z,11.60
2018-10-02T20:07:53.875Z,11.60
2018-10-02T20:10:22.686Z,11.60
2018-10-02T20:12:51.238Z,11.60
2018-10-02T20:15:20.141Z,11.50
2018-10-02T20:17:49.285Z,11.50
2018-10-02T20:20:19.557Z,11.50
2018-10-02T20:22:48.305Z,11.50
2018-10-02T20:25:16.784Z,11.50
2018-10-02T20:27:45.893Z,11.50
2018-10-02T20:30:14.373Z,11.50
2018-10-02T20:32:43.357Z,11.50
2018-10-02T20:35:11.822Z,11.40
2018-10-02T20:37:41.678Z,11.40
2018-10-02T20:40:10.254Z,11.50
2018-10-02T20:42:39.141Z,11.50
2018-10-02T20:45:08.029Z,11.50
2018-10-02T20:47:36.810Z,11.50
2018-10-02T20:50:05.843Z,11.50
2018-10-02T20:52:34.478Z,11.50
2018-10-02T20:55:02.999Z,11.60
2018-10-02T20:57:31.398Z,11.60
2018-10-02T20:59:59.959Z,11.60
2018-10-02T21:02:28.561Z,11.60
2018-10-02T21:04:57.140Z,11.60
2018-10-02T21:07:25.593Z,11.60
2018-10-02T21:09:54.459Z,11.50
2018-10-02T21:12:22.966Z,11.50
2018-10-02T21:14:51.525Z,11.50
2018-10-02T21:17:19.887Z,11.50
2018-10-02T21:19:48.418Z,11.40
2018-10-02T21:22:16.993Z,11.50
2018-10-02T21:24:45.674Z,11.40
2018-10-02T21:27:14.369Z,11.40
2018-10-02T21:29:42.859Z,11.30
2018-10-02T21:32:11.945Z,11.30
2018-10-02T21:34:40.484Z,11.30
2018-10-02T21:37:08.948Z,11.20
2018-10-02T21:39:37.398Z,11.20
2018-10-02T21:42:06.152Z,11.10
2018-10-02T21:44:34.437Z,11.10
2018-10-02T21:47:02.843Z,11.10
2018-10-02T21:49:31.295Z,11.10
2018-10-02T21:51:59.793Z,11.20
2018-10-02T21:54:28.128Z,11.20
2018-10-02T21:56:56.549Z,11.20
2018-10-02T21:59:25.109Z,11.10
2018-10-02T22:01:53.501Z,11.10
2018-10-02T22:04:21.780Z,11.10
2018-10-02T22:06:50.144Z,11.00
2018-10-02T22:09:18.508Z,11.10
2018-10-02T22:11:46.944Z,11.10
2018-10-02T22:14:15.634Z,11.10
2018-10-02T22:16:44.511Z,11.20
2018-10-02T22:19:12.915Z,11.20
2018-10-02T22:21:41.498Z,11.20
2018-10-02T22:24:10.129Z,11.30
2018-10-02T22:26:38.630Z,11.30
2018-10-02T22:29:06.942Z,11.30
2018-10-02T22:31:35.452Z,11.40
2018-10-02T22:34:03.829Z,11.40
2018-10-02T22:36:32.271Z,11.40
2018-10-02T22:39:00.631Z,11.40
2018-10-02T22:41:28.931Z,11.30
2018-10-02T22:43:57.300Z,11.30
2018-10-02T22:46:25.762Z,11.30
2018-10-02T22:48:54.165Z,11.30
2018-10-02T22:51:22.546Z,11.20
2018-10-02T22:53:50.910Z,11.20
2018-10-02T22:56:19.473Z,11.20
2018-10-02T22:58:47.887Z,11.20
2018-10-02T23:01:16.226Z,11.20
2018-10-02T23:03:44.752Z,11.10
2018-10-02T23:06:12.982Z,11.10
2018-10-02T23:08:41.366Z,11.10
2018-10-02T23:11:09.650Z,11.20
2018-10-02T23:13:38.044Z,11.20
2018-10-02T23:16:06.543Z,11.30
2018-10-02T23:18:35.001Z,11.30
2018-10-02T23:21:03.496Z,11.30
2018-10-02T23:23:32.190Z,11.40
2018-10-02T23:26:00.609Z,11.40
2018-10-02T23:28:29.045Z,11.40
2018-10-02T23:30:57.457Z,11.50
2018-10-02T23:33:25.843Z,11.50
2018-10-02T23:35:54.198Z,11.50
2018-10-02T23:38:23.033Z,11.50
2018-10-02T23:40:51.434Z,11.50
2018-10-02T23:43:20.396Z,11.40
2018-10-02T23:45:48.995Z,11.40
2018-10-02T23:48:17.249Z,11.40
2018-10-02T23:50:45.489Z,11.40
2018-10-02T23:53:13.864Z,11.40
2018-10-02T23:55:42.322Z,11.40
2018-10-02T23:58:10.563Z,11.40
